Time;durP1;ratioP1;P1;durP2;ratioP2;P2;SDS_P1;SDS_P2;PMS_P1;PMS_P2;Temp;Humidity;BMP_temperature;BMP_pressure;BME280_temperature;BME280_humidity;BME280_pressure;Samples;Min_cycle;Max_cycle;Signal;HPM_P1;HPM_P2
2023/08/19 00:00:47;;;;;;;2.17;2.03;;;23.90;99.40;;;;;;5057088;28;20216;-71
2023/08/19 00:03:13;;;;;;;2.55;2.35;;;23.80;99.30;;;;;;5048830;28;20247;-72
2023/08/19 00:05:39;;;;;;;2.38;2.17;;;23.80;99.20;;;;;;5040579;28;20205;-71
2023/08/19 00:08:05;;;;;;;2.22;2.10;;;23.80;99.30;;;;;;5036763;28;20205;-71
2023/08/19 00:10:31;;;;;;;2.15;2.05;;;23.80;99.40;;;;;;5052826;28;20199;-72
2023/08/19 00:12:56;;;;;;;2.55;2.35;;;23.80;99.40;;;;;;5028458;28;20273;-72
2023/08/19 00:15:22;;;;;;;2.35;2.15;;;23.80;99.40;;;;;;5053351;28;20646;-71
2023/08/19 00:17:48;;;;;;;2.42;2.30;;;23.80;99.40;;;;;;5054865;28;20190;-71
2023/08/19 00:20:14;;;;;;;2.58;2.30;;;23.80;99.40;;;;;;5036836;28;20269;-72
2023/08/19 00:22:39;;;;;;;2.35;2.17;;;23.80;99.40;;;;;;5023416;28;20660;-72
2023/08/19 00:25:06;;;;;;;2.97;2.13;;;23.80;99.40;;;;;;5033889;28;20202;-72
2023/08/19 00:27:31;;;;;;;2.60;2.20;;;23.80;99.40;;;;;;5064178;28;20189;-71
2023/08/19 00:29:57;;;;;;;2.30;2.20;;;23.80;99.40;;;;;;5040718;28;20187;-72
2023/08/19 00:32:23;;;;;;;2.65;2.45;;;23.80;99.40;;;;;;5028269;28;20734;-72
2023/08/19 00:34:49;;;;;;;2.20;2.10;;;23.80;99.40;;;;;;5055648;28;20215;-72
2023/08/19 00:37:15;;;;;;;2.22;2.03;;;23.80;99.40;;;;;;5056319;28;20259;-72
2023/08/19 00:39:40;;;;;;;2.47;2.20;;;23.80;99.70;;;;;;5039367;28;20197;-72
2023/08/19 00:42:09;;;;;;;2.42;2.22;;;23.80;99.20;;;;;;5039831;28;20189;-71
2023/08/19 00:44:35;;;;;;;2.30;2.10;;;23.80;99.30;;;;;;5022890;28;20203;-72
2023/08/19 00:47:02;;;;;;;2.10;1.90;;;23.80;99.40;;;;;;5028058;28;20182;-72
2023/08/19 00:49:30;;;;;;;2.35;2.17;;;23.80;99.40;;;;;;5020763;28;20187;-71
2023/08/19 00:51:57;;;;;;;2.20;2.00;;;23.80;99.40;;;;;;5036416;28;20186;-71
2023/08/19 00:54:23;;;;;;;2.33;2.22;;;23.80;99.30;;;;;;5024771;28;20647;-70
2023/08/19 00:56:49;;;;;;;2.30;2.10;;;23.80;99.60;;;;;;5019724;28;20190;-72
2023/08/19 00:59:16;;;;;;;2.42;2.28;;;23.80;99.30;;;;;;5048351;28;20221;-70
2023/08/19 01:01:43;;;;;;;2.35;2.15;;;23.80;99.40;;;;;;5052509;28;20306;-72
2023/08/19 01:04:09;;;;;;;2.30;2.10;;;23.80;99.40;;;;;;5020401;28;20298;-70
2023/08/19 01:07:16;;;;;;;2.40;2.20;;;23.80;99.40;;;;;;5070924;28;20205;-72
2023/08/19 01:10:06;;;;;;;3.33;2.40;;;23.80;99.60;;;;;;5039552;28;20263;-71
2023/08/19 01:13:00;;;;;;;2.65;2.30;;;23.80;99.40;;;;;;5029701;28;20282;-71
2023/08/19 01:15:35;;;;;;;2.03;1.92;;;23.80;99.30;;;;;;5049061;28;20218;-71
2023/08/19 01:18:05;;;;;;;2.40;2.20;;;23.80;99.40;;;;;;5035946;28;20269;-71
2023/08/19 01:20:33;;;;;;;2.70;2.40;;;23.80;99.40;;;;;;5039482;28;20252;-71
2023/08/19 01:23:25;;;;;;;2.35;2.17;;;23.80;99.40;;;;;;5050784;28;20210;-71
2023/08/19 01:25:51;;;;;;;2.20;2.00;;;23.80;99.50;;;;;;5052427;28;20242;-71
2023/08/19 01:28:20;;;;;;;2.40;2.22;;;23.80;99.40;;;;;;5061011;28;20196;-72
2023/08/19 01:30:46;;;;;;;2.22;2.03;;;23.80;99.40;;;;;;5053102;28;20190;-72
2023/08/19 01:33:13;;;;;;;2.17;2.08;;;23.80;99.30;;;;;;5052362;28;20194;-72
2023/08/19 01:36:03;;;;;;;2.20;2.10;;;23.80;99.40;;;;;;5052273;28;20263;-72
2023/08/19 01:38:31;;;;;;;2.47;2.00;;;23.80;99.30;;;;;;5036091;28;20550;-71
2023/08/19 01:40:58;;;;;;;2.20;2.10;;;23.80;99.40;;;;;;5073269;28;20237;-71
2023/08/19 01:43:24;;;;;;;2.35;2.25;;;23.80;99.40;;;;;;5030988;28;20190;-71
2023/08/19 01:45:51;;;;;;;2.47;2.28;;;23.70;99.30;;;;;;5035497;28;20209;-72
2023/08/19 01:48:17;;;;;;;2.22;2.13;;;23.80;99.40;;;;;;5034218;28;20173;-71
2023/08/19 01:50:42;;;;;;;2.35;2.15;;;23.80;99.40;;;;;;5022500;28;20191;-72
2023/08/19 01:53:08;;;;;;;2.10;2.00;;;23.80;99.40;;;;;;5035042;28;20723;-72
2023/08/19 01:55:34;;;;;;;1.98;1.88;;;23.80;99.40;;;;;;5043417;28;20198;-72
2023/08/19 01:57:59;;;;;;;2.60;2.20;;;23.80;99.40;;;;;;5031559;28;20234;-72
2023/08/19 02:00:25;;;;;;;2.60;2.40;;;23.80;99.40;;;;;;5054808;28;20221;-71
2023/08/19 02:02:51;;;;;;;3.53;2.35;;;23.80;99.40;;;;;;5043945;28;20187;-73
2023/08/19 02:05:17;;;;;;;2.22;2.03;;;23.80;99.40;;;;;;5022054;28;20206;-72
2023/08/19 02:07:42;;;;;;;2.50;2.33;;;23.70;99.40;;;;;;5050601;28;20268;-71
2023/08/19 02:10:09;;;;;;;2.42;2.22;;;23.80;99.40;;;;;;5034541;28;20186;-71
2023/08/19 02:12:35;;;;;;;2.05;1.95;;;23.80;99.40;;;;;;5033289;28;20312;-71
2023/08/19 02:15:01;;;;;;;3.22;2.40;;;23.80;99.40;;;;;;5047146;28;20685;-71
2023/08/19 02:17:27;;;;;;;2.13;2.03;;;23.70;99.40;;;;;;5030645;28;20186;-72
2023/08/19 02:19:53;;;;;;;2.10;2.00;;;23.80;99.30;;;;;;5026535;28;20218;-71
2023/08/19 02:22:20;;;;;;;2.28;2.03;;;23.70;99.30;;;;;;5038033;28;20197;-70
2023/08/19 02:24:47;;;;;;;2.38;2.17;;;23.70;99.40;;;;;;5035473;28;20571;-72
2023/08/19 02:27:13;;;;;;;2.25;2.15;;;23.70;99.40;;;;;;5034824;28;20187;-71
2023/08/19 02:29:38;;;;;;;2.40;2.20;;;23.70;99.40;;;;;;5051422;28;20186;-71
2023/08/19 02:32:05;;;;;;;2.35;2.15;;;23.70;99.40;;;;;;5030913;28;20197;-71
2023/08/19 02:34:30;;;;;;;2.42;2.22;;;23.70;99.40;;;;;;5054636;28;20207;-72
2023/08/19 02:36:56;;;;;;;2.47;2.13;;;23.70;99.40;;;;;;5026197;28;20610;-72
2023/08/19 02:39:22;;;;;;;2.58;1.90;;;23.70;99.40;;;;;;5033025;28;20192;-71
2023/08/19 02:41:48;;;;;;;2.10;2.00;;;23.80;99.40;;;;;;5054255;28;20233;-71
2023/08/19 02:44:13;;;;;;;2.10;1.90;;;23.70;99.40;;;;;;5040216;28;20213;-70
2023/08/19 02:46:39;;;;;;;2.30;2.20;;;23.70;99.50;;;;;;5036725;28;20311;-71
2023/08/19 02:49:06;;;;;;;2.53;2.17;;;23.70;99.40;;;;;;5030959;28;20216;-71
2023/08/19 02:51:31;;;;;;;2.15;1.95;;;23.70;99.40;;;;;;5021581;28;20183;-71
2023/08/19 02:53:57;;;;;;;2.25;2.05;;;23.70;99.40;;;;;;5041751;28;20218;-72
2023/08/19 02:56:23;;;;;;;2.13;1.90;;;23.70;99.40;;;;;;5034240;28;20297;-71
2023/08/19 02:58:49;;;;;;;2.20;2.10;;;23.70;99.40;;;;;;5017818;28;20191;-72
2023/08/19 03:01:14;;;;;;;2.55;2.20;;;23.70;99.30;;;;;;5036948;28;20210;-71
2023/08/19 03:03:40;;;;;;;2.03;1.92;;;23.70;99.40;;;;;;5044310;28;20190;-72
2023/08/19 03:06:06;;;;;;;2.17;2.00;;;23.70;99.40;;;;;;5034066;28;20187;-72
2023/08/19 03:08:32;;;;;;;2.10;2.00;;;23.70;99.40;;;;;;5050350;28;20178;-72
2023/08/19 03:10:58;;;;;;;2.00;1.90;;;23.70;99.50;;;;;;5053679;28;20186;-71
2023/08/19 03:13:23;;;;;;;2.33;2.13;;;23.70;99.40;;;;;;5053806;28;20200;-72
2023/08/19 03:15:49;;;;;;;3.35;2.42;;;23.70;99.30;;;;;;5053885;28;20216;-72
2023/08/19 03:18:15;;;;;;;2.00;1.90;;;23.70;99.40;;;;;;5032014;28;20194;-72
2023/08/19 03:20:42;;;;;;;4.03;2.10;;;23.70;99.40;;;;;;5038777;28;20210;-72
2023/08/19 03:23:08;;;;;;;2.42;2.22;;;23.70;99.30;;;;;;5042137;28;20179;-72
2023/08/19 03:25:33;;;;;;;2.40;2.20;;;23.70;99.30;;;;;;5017252;28;20204;-72
2023/08/19 03:27:59;;;;;;;2.42;2.22;;;23.70;99.40;;;;;;5058375;28;20261;-72
2023/08/19 03:30:25;;;;;;;2.47;2.28;;;23.70;99.40;;;;;;5032183;28;20606;-72
2023/08/19 03:32:51;;;;;;;2.50;2.00;;;23.70;99.40;;;;;;5051701;28;20189;-72
2023/08/19 03:35:17;;;;;;;2.63;2.40;;;23.70;99.40;;;;;;5033933;28;20206;-71
2023/08/19 03:37:43;;;;;;;2.17;1.98;;;23.70;99.40;;;;;;5041733;28;20182;-72
2023/08/19 03:40:09;;;;;;;2.20;2.00;;;23.60;99.30;;;;;;5042969;28;20206;-72
2023/08/19 03:42:35;;;;;;;2.08;1.98;;;23.70;99.40;;;;;;5033752;28;20174;-71
2023/08/19 03:45:01;;;;;;;2.30;2.00;;;23.70;99.40;;;;;;5025114;28;20255;-71
2023/08/19 03:47:28;;;;;;;2.10;2.00;;;23.70;99.40;;;;;;5048450;28;20182;-72
2023/08/19 03:49:54;;;;;;;2.38;2.15;;;23.70;99.40;;;;;;5051499;28;20196;-71
2023/08/19 03:52:23;;;;;;;2.03;1.92;;;23.70;99.40;;;;;;5033778;28;20236;-72
2023/08/19 03:54:50;;;;;;;2.20;2.10;;;23.70;99.40;;;;;;5024867;28;20217;-72
2023/08/19 03:57:16;;;;;;;2.55;2.17;;;23.70;99.40;;;;;;5033556;28;20681;-72
2023/08/19 03:59:42;;;;;;;2.38;2.20;;;23.70;99.40;;;;;;5034668;28;20182;-72
2023/08/19 04:02:07;;;;;;;1.98;1.88;;;23.60;99.30;;;;;;5052548;28;20185;-72
2023/08/19 04:04:36;;;;;;;1.95;1.85;;;23.70;99.40;;;;;;5044838;28;20198;-71
2023/08/19 04:07:02;;;;;;;2.53;2.22;;;23.60;99.30;;;;;;5042276;28;20182;-71
2023/08/19 04:09:27;;;;;;;3.03;2.05;;;23.60;99.70;;;;;;5031758;28;20182;-72
2023/08/19 04:11:55;;;;;;;2.90;2.15;;;23.60;99.30;;;;;;5053210;28;20677;-71
2023/08/19 04:14:20;;;;;;;2.25;2.15;;;23.60;99.30;;;;;;5052940;28;20258;-71
2023/08/19 04:16:46;;;;;;;1.90;1.80;;;23.60;99.30;;;;;;5054340;28;20191;-71
2023/08/19 04:19:12;;;;;;;2.20;2.00;;;23.60;99.30;;;;;;5030597;28;20194;-72
2023/08/19 04:21:38;;;;;;;2.00;1.90;;;23.60;99.30;;;;;;5041440;28;20206;-72
2023/08/19 04:24:04;;;;;;;2.05;1.85;;;23.60;99.30;;;;;;5060700;28;20240;-71
2023/08/19 04:26:30;;;;;;;2.17;1.98;;;23.60;99.30;;;;;;5038647;28;20236;-72
2023/08/19 04:28:55;;;;;;;2.40;2.20;;;23.60;99.30;;;;;;5066212;28;20194;-71
2023/08/19 04:31:22;;;;;;;2.13;2.03;;;23.60;99.30;;;;;;5036546;28;20232;-72
2023/08/19 04:33:52;;;;;;;1.75;1.65;;;23.60;99.30;;;;;;5032313;28;20209;-72
2023/08/19 04:36:18;;;;;;;2.03;1.83;;;23.60;99.30;;;;;;5052099;28;20190;-72
2023/08/19 04:38:44;;;;;;;2.30;2.10;;;23.60;99.30;;;;;;5033246;28;20686;-71
2023/08/19 04:41:11;;;;;;;2.42;2.22;;;23.60;99.20;;;;;;5040373;28;20202;-72
2023/08/19 04:43:41;;;;;;;2.28;2.08;;;23.60;99.20;;;;;;5056268;28;20269;-72
2023/08/19 04:46:09;;;;;;;2.30;2.10;;;23.60;99.20;;;;;;5028514;28;20189;-72
2023/08/19 04:48:35;;;;;;;2.45;2.20;;;23.60;99.20;;;;;;5048211;28;20183;-71
2023/08/19 04:51:01;;;;;;;2.83;2.05;;;23.60;99.20;;;;;;5030315;28;20251;-72
2023/08/19 04:53:28;;;;;;;2.22;2.03;;;23.60;99.30;;;;;;5047159;28;20582;-72
2023/08/19 04:56:02;;;;;;;2.20;2.10;;;23.60;99.30;;;;;;5046236;28;20193;-71
2023/08/19 04:58:28;;;;;;;4.30;2.25;;;23.60;99.30;;;;;;5033836;28;20181;-72
2023/08/19 05:00:54;;;;;;;1.98;1.88;;;23.60;99.30;;;;;;5039486;28;20218;-71
2023/08/19 05:03:20;;;;;;;2.17;1.98;;;23.60;99.30;;;;;;5056374;28;20249;-71
2023/08/19 05:05:47;;;;;;;4.30;2.42;;;23.60;99.30;;;;;;5030908;28;20209;-71
2023/08/19 05:08:12;;;;;;;2.30;2.10;;;23.60;99.30;;;;;;5045194;28;20641;-72
2023/08/19 05:10:38;;;;;;;2.20;2.10;;;23.60;99.30;;;;;;5035087;28;20263;-71
2023/08/19 05:13:04;;;;;;;2.80;2.50;;;23.60;99.30;;;;;;5031023;28;20234;-72
2023/08/19 05:15:30;;;;;;;2.28;2.08;;;23.60;99.30;;;;;;5049893;28;20207;-72
2023/08/19 05:17:56;;;;;;;2.10;2.00;;;23.60;99.30;;;;;;5028818;28;20194;-72
2023/08/19 05:20:22;;;;;;;2.30;2.10;;;23.50;99.60;;;;;;5035869;28;20211;-72
2023/08/19 05:22:47;;;;;;;2.30;2.10;;;23.50;99.30;;;;;;5052437;28;20234;-71
2023/08/19 05:25:13;;;;;;;2.45;2.25;;;23.60;99.30;;;;;;5043897;28;20216;-71
2023/08/19 05:27:39;;;;;;;1.90;1.80;;;23.60;99.30;;;;;;5036214;28;20186;-72
2023/08/19 05:30:07;;;;;;;2.45;2.25;;;23.60;99.30;;;;;;5035677;28;20570;-71
2023/08/19 05:32:33;;;;;;;2.60;2.40;;;23.50;99.30;;;;;;5030053;28;20197;-71
2023/08/19 05:34:59;;;;;;;2.58;2.13;;;23.60;99.30;;;;;;5051587;28;20214;-71
2023/08/19 05:37:25;;;;;;;2.40;2.20;;;23.60;99.30;;;;;;5052287;28;20324;-72
2023/08/19 05:39:51;;;;;;;2.70;2.50;;;23.60;99.30;;;;;;5043894;28;20198;-71
2023/08/19 05:42:18;;;;;;;2.35;2.15;;;23.50;99.30;;;;;;5060561;28;20198;-72
2023/08/19 05:44:43;;;;;;;2.15;1.95;;;23.60;99.30;;;;;;5052125;28;20642;-71
2023/08/19 05:47:09;;;;;;;2.08;1.95;;;23.60;99.40;;;;;;5038035;28;20670;-71
2023/08/19 05:49:35;;;;;;;2.20;2.00;;;23.50;99.40;;;;;;5057745;28;20218;-71
2023/08/19 05:52:01;;;;;;;2.38;2.17;;;23.60;99.50;;;;;;5069516;28;20277;-71
2023/08/19 05:54:27;;;;;;;2.05;1.95;;;23.50;99.60;;;;;;5034454;28;20237;-71
2023/08/19 05:56:52;;;;;;;2.58;2.05;;;23.60;99.50;;;;;;5040071;28;20199;-71
2023/08/19 05:59:18;;;;;;;2.47;2.28;;;23.60;99.50;;;;;;5051591;28;20191;-71
2023/08/19 06:01:44;;;;;;;3.00;2.42;;;23.50;99.60;;;;;;5033651;28;20217;-72
2023/08/19 06:04:10;;;;;;;3.80;2.50;;;23.60;99.50;;;;;;5036367;28;20205;-71
2023/08/19 06:06:36;;;;;;;4.38;2.45;;;23.60;99.50;;;;;;5029453;28;20182;-71
2023/08/19 06:09:02;;;;;;;5.25;2.95;;;23.50;99.60;;;;;;5034723;28;20190;-71
2023/08/19 06:11:28;;;;;;;5.00;2.80;;;23.60;99.60;;;;;;5052408;28;20185;-71
2023/08/19 06:13:54;;;;;;;4.32;2.72;;;23.60;99.60;;;;;;5045810;28;20296;-71
2023/08/19 06:16:19;;;;;;;7.40;3.20;;;23.60;99.60;;;;;;5040372;28;20186;-72
2023/08/19 06:18:45;;;;;;;4.55;2.80;;;23.60;99.60;;;;;;5041795;28;20201;-71
2023/08/19 06:21:12;;;;;;;4.82;3.03;;;23.60;99.70;;;;;;5053755;28;20206;-71
2023/08/19 06:23:38;;;;;;;5.65;2.72;;;23.60;99.70;;;;;;5050948;28;20273;-71
2023/08/19 06:26:04;;;;;;;2.85;2.65;;;23.60;99.90;;;;;;5053876;28;20268;-71
2023/08/19 06:28:29;;;;;;;6.57;3.40;;;23.60;99.90;;;;;;5051393;28;20209;-69
2023/08/19 06:30:56;;;;;;;5.10;3.22;;;23.50;99.90;;;;;;5050924;28;20201;-71
2023/08/19 06:33:23;;;;;;;7.22;3.15;;;23.60;99.90;;;;;;5036988;28;20196;-71
2023/08/19 06:35:49;;;;;;;5.75;3.25;;;23.60;99.90;;;;;;5043850;28;20222;-70
2023/08/19 06:38:20;;;;;;;4.28;3.20;;;23.50;99.90;;;;;;5030276;28;20193;-71
2023/08/19 06:41:04;;;;;;;7.72;3.65;;;23.50;99.90;;;;;;5058320;28;20320;-71
2023/08/19 06:43:31;;;;;;;6.35;3.30;;;23.60;99.90;;;;;;5053026;28;20206;-71
2023/08/19 06:46:00;;;;;;;6.07;3.58;;;23.50;99.90;;;;;;5058672;28;20182;-70
2023/08/19 06:48:27;;;;;;;7.97;3.38;;;23.50;99.90;;;;;;5042493;28;20214;-71
2023/08/19 06:50:54;;;;;;;6.28;3.47;;;23.60;99.90;;;;;;5030274;28;20190;-70
2023/08/19 06:53:21;;;;;;;5.28;3.50;;;23.60;99.90;;;;;;5050358;28;20269;-71
2023/08/19 06:56:29;;;;;;;4.50;3.30;;;23.60;99.90;;;;;;5065814;28;20221;-70
2023/08/19 06:59:10;;;;;;;6.45;2.85;;;23.60;99.90;;;;;;4999562;28;20209;-70
2023/08/19 07:01:40;;;;;;;5.20;3.35;;;23.60;99.90;;;;;;5044343;28;20590;-70
2023/08/19 07:04:08;;;;;;;5.25;3.40;;;23.60;99.90;;;;;;5050310;28;20288;-70
2023/08/19 07:06:36;;;;;;;5.22;3.00;;;23.50;99.90;;;;;;5034838;28;20187;-71
2023/08/19 07:09:05;;;;;;;5.13;3.30;;;23.60;99.90;;;;;;5041654;28;20199;-71
2023/08/19 07:11:32;;;;;;;5.65;3.40;;;23.60;99.90;;;;;;5043358;28;20244;-71
2023/08/19 07:13:58;;;;;;;6.70;3.00;;;23.60;99.90;;;;;;5033723;28;20292;-70
2023/08/19 07:16:27;;;;;;;5.75;3.35;;;23.60;99.90;;;;;;5042232;28;20573;-71
2023/08/19 07:19:01;;;;;;;5.50;3.28;;;23.50;99.90;;;;;;5049586;28;20207;-71
2023/08/19 07:21:27;;;;;;;4.78;3.50;;;23.60;99.90;;;;;;5045186;28;20206;-71
2023/08/19 07:23:58;;;;;;;4.72;3.38;;;23.60;99.90;;;;;;5038694;28;20213;-70
2023/08/19 07:26:26;;;;;;;6.68;3.55;;;23.60;99.90;;;;;;5062048;28;20190;-72
2023/08/19 07:28:53;;;;;;;6.22;3.50;;;23.60;99.90;;;;;;5034588;28;20190;-71
2023/08/19 07:31:22;;;;;;;5.15;3.55;;;23.60;99.90;;;;;;5052149;28;20205;-70
2023/08/19 07:33:48;;;;;;;14.10;5.82;;;23.60;99.90;;;;;;5049800;28;20228;-70
2023/08/19 07:36:14;;;;;;;12.57;5.80;;;23.60;99.90;;;;;;5041861;28;20683;-71
2023/08/19 07:38:39;;;;;;;16.25;6.15;;;23.70;99.90;;;;;;5044208;28;20210;-70
2023/08/19 07:41:05;;;;;;;11.65;5.60;;;23.80;99.90;;;;;;5041894;28;20296;-70
2023/08/19 07:43:31;;;;;;;12.43;5.35;;;23.80;99.90;;;;;;5045674;28;20193;-72
2023/08/19 07:45:57;;;;;;;9.80;5.47;;;23.90;99.90;;;;;;5037358;28;20184;-70
2023/08/19 07:48:22;;;;;;;12.90;5.90;;;23.90;99.90;;;;;;5037175;28;20178;-70
2023/08/19 07:50:48;;;;;;;10.57;5.50;;;23.90;99.90;;;;;;5050505;28;20213;-70
2023/08/19 07:53:14;;;;;;;13.43;5.90;;;23.90;99.90;;;;;;5049698;28;20182;-70
2023/08/19 07:55:40;;;;;;;12.38;5.28;;;23.90;99.90;;;;;;5039745;28;20689;-71
2023/08/19 07:58:07;;;;;;;12.63;6.10;;;24.00;99.90;;;;;;5047561;28;20236;-70
2023/08/19 08:00:33;;;;;;;13.25;6.28;;;24.00;99.90;;;;;;5050390;28;20220;-70
2023/08/19 08:02:59;;;;;;;34.33;12.27;;;24.00;99.90;;;;;;5021436;28;20178;-71
2023/08/19 08:05:24;;;;;;;30.05;11.55;;;24.00;99.90;;;;;;5025101;28;20198;-71
2023/08/19 08:07:50;;;;;;;23.13;9.70;;;24.00;99.90;;;;;;5036033;28;20205;-71
2023/08/19 08:10:16;;;;;;;22.98;8.45;;;24.00;99.90;;;;;;5035834;28;20190;-70
2023/08/19 08:12:42;;;;;;;18.80;8.15;;;24.00;99.90;;;;;;5067404;28;20189;-71
2023/08/19 08:15:09;;;;;;;18.80;8.45;;;24.00;99.90;;;;;;5057849;28;20246;-71
2023/08/19 08:17:35;;;;;;;16.92;7.72;;;24.10;99.90;;;;;;5041106;28;20235;-71
2023/08/19 08:20:01;;;;;;;16.48;7.40;;;24.10;99.90;;;;;;5037042;28;20198;-71
2023/08/19 08:22:26;;;;;;;13.73;7.03;;;24.10;99.90;;;;;;5028531;28;20179;-70
2023/08/19 08:24:52;;;;;;;18.58;7.78;;;24.10;99.90;;;;;;5040100;28;20205;-70
2023/08/19 08:27:18;;;;;;;14.63;7.15;;;24.10;99.90;;;;;;5055085;28;20324;-70
2023/08/19 08:29:44;;;;;;;15.70;6.70;;;24.10;99.90;;;;;;5048742;28;20182;-70
2023/08/19 08:32:10;;;;;;;13.70;6.30;;;24.10;99.90;;;;;;5047980;28;20306;-69
2023/08/19 08:34:36;;;;;;;12.73;6.30;;;24.10;99.90;;;;;;5045846;28;20202;-70
2023/08/19 08:37:02;;;;;;;13.32;6.15;;;24.20;99.90;;;;;;5032825;28;20183;-70
2023/08/19 08:39:28;;;;;;;10.00;5.07;;;24.10;99.90;;;;;;5055924;28;20530;-70
2023/08/19 08:41:54;;;;;;;12.48;5.32;;;24.20;99.90;;;;;;5033846;28;20210;-70
2023/08/19 08:44:21;;;;;;;11.85;6.40;;;24.20;99.90;;;;;;5028031;28;20748;-70
2023/08/19 08:46:49;;;;;;;11.32;5.55;;;24.20;99.90;;;;;;5020392;28;20182;-70
2023/08/19 08:49:16;;;;;;;10.27;5.32;;;24.20;99.90;;;;;;5053124;28;20189;-70
2023/08/19 08:51:42;;;;;;;10.95;5.82;;;24.20;99.90;;;;;;5049854;28;20204;-71
2023/08/19 08:54:08;;;;;;;10.15;5.05;;;24.20;99.90;;;;;;5052527;28;20578;-72
2023/08/19 08:56:34;;;;;;;11.30;5.70;;;24.30;99.90;;;;;;5020600;28;20178;-69
2023/08/19 08:59:00;;;;;;;8.65;4.88;;;24.20;99.90;;;;;;5019876;28;20194;-70
2023/08/19 09:01:27;;;;;;;10.70;5.60;;;24.20;99.90;;;;;;5054273;28;20234;-70
2023/08/19 09:04:03;;;;;;;8.05;4.90;;;24.30;99.90;;;;;;5059433;28;20259;-69
2023/08/19 09:06:29;;;;;;;9.80;4.38;;;24.30;99.90;;;;;;5047961;28;20205;-70
2023/08/19 09:09:10;;;;;;;9.40;4.85;;;24.30;99.90;;;;;;5049896;28;20601;-70
2023/08/19 09:11:43;;;;;;;9.57;4.95;;;24.30;99.90;;;;;;5056334;28;20322;-70
2023/08/19 09:14:34;;;;;;;8.52;4.82;;;24.30;99.90;;;;;;5055999;28;20208;-70
2023/08/19 09:17:00;;;;;;;8.38;5.22;;;24.30;99.90;;;;;;5054059;28;20186;-70
2023/08/19 09:19:26;;;;;;;7.90;4.53;;;24.30;99.90;;;;;;5052664;28;20556;-70
2023/08/19 09:21:52;;;;;;;6.30;4.53;;;24.30;99.90;;;;;;5044234;28;20214;-70
2023/08/19 09:24:18;;;;;;;7.60;4.78;;;24.30;99.90;;;;;;5046597;28;20203;-70
2023/08/19 09:26:45;;;;;;;6.32;4.38;;;24.30;99.90;;;;;;5039431;28;20178;-71
2023/08/19 09:29:12;;;;;;;6.85;4.10;;;24.30;99.90;;;;;;5055731;28;20671;-70
2023/08/19 09:31:40;;;;;;;6.00;4.00;;;24.30;99.90;;;;;;5043708;28;20247;-70
2023/08/19 09:34:06;;;;;;;7.97;4.25;;;24.40;99.90;;;;;;5061575;28;20213;-71
2023/08/19 09:36:32;;;;;;;6.72;4.75;;;24.30;99.90;;;;;;5052124;28;20194;-71
2023/08/19 09:38:58;;;;;;;5.47;4.35;;;24.30;99.90;;;;;;5029091;28;20186;-70
2023/08/19 09:41:32;;;;;;;8.43;4.50;;;24.40;99.90;;;;;;5043819;28;20205;-70
2023/08/19 09:43:58;;;;;;;6.85;4.22;;;24.40;99.90;;;;;;5050611;28;20213;-71
2023/08/19 09:46:34;;;;;;;8.05;4.20;;;24.40;99.90;;;;;;5047328;28;20183;-69
2023/08/19 09:49:00;;;;;;;5.40;3.63;;;24.40;99.90;;;;;;5059996;28;20201;-69
2023/08/19 09:51:28;;;;;;;7.22;4.13;;;24.40;99.90;;;;;;5044440;28;20657;-70
2023/08/19 09:53:55;;;;;;;7.60;4.00;;;24.40;99.90;;;;;;5027883;28;20348;-69
2023/08/19 09:56:24;;;;;;;4.78;4.22;;;24.40;99.90;;;;;;5051685;28;20204;-70
2023/08/19 09:58:52;;;;;;;7.53;3.92;;;24.40;99.90;;;;;;5028661;28;20197;-69
2023/08/19 10:01:20;;;;;;;7.57;3.88;;;24.40;99.90;;;;;;5035100;28;20215;-70
2023/08/19 10:03:47;;;;;;;4.53;3.90;;;24.40;99.90;;;;;;5050271;28;20739;-70
2023/08/19 10:06:25;;;;;;;7.68;4.15;;;24.40;99.90;;;;;;5049713;28;20663;-69
2023/08/19 10:08:59;;;;;;;5.45;3.90;;;24.40;99.90;;;;;;5041884;28;20680;-70
2023/08/19 10:11:29;;;;;;;6.20;3.83;;;24.50;99.90;;;;;;5037403;28;20213;-71
2023/08/19 10:14:03;;;;;;;6.35;3.78;;;24.40;99.90;;;;;;5026167;28;20256;-70
2023/08/19 10:16:41;;;;;;;4.38;3.58;;;24.40;99.90;;;;;;5018356;28;20194;-70
2023/08/19 10:19:11;;;;;;;5.47;3.67;;;24.50;99.90;;;;;;5040789;28;20305;-71
2023/08/19 10:21:40;;;;;;;5.10;3.63;;;24.50;99.90;;;;;;5019360;28;20336;-70
2023/08/19 10:24:07;;;;;;;6.20;4.32;;;24.40;99.90;;;;;;5049853;28;20240;-70
2023/08/19 10:26:33;;;;;;;7.65;4.03;;;24.50;99.90;;;;;;5044099;28;20217;-70
2023/08/19 10:29:07;;;;;;;5.50;3.80;;;24.50;99.90;;;;;;5041468;28;20214;-71
2023/08/19 10:31:35;;;;;;;4.72;3.75;;;24.50;99.90;;;;;;5049899;28;20217;-70
2023/08/19 10:34:19;;;;;;;5.47;3.95;;;24.40;99.90;;;;;;5028971;28;20214;-71
2023/08/19 10:37:10;;;;;;;4.53;3.80;;;24.40;99.90;;;;;;5037976;28;20250;-71
2023/08/19 10:39:36;;;;;;;5.72;3.85;;;24.30;99.90;;;;;;5038585;28;20186;-71
2023/08/19 10:42:03;;;;;;;3.83;3.50;;;24.30;99.90;;;;;;5026366;28;20256;-70
2023/08/19 10:44:33;;;;;;;4.97;3.42;;;24.20;99.90;;;;;;5058635;28;20241;-69
2023/08/19 10:47:16;;;;;;;4.45;3.80;;;24.20;99.90;;;;;;5043696;28;20182;-71
2023/08/19 10:49:42;;;;;;;4.70;3.92;;;24.20;99.90;;;;;;5035842;28;20225;-71
2023/08/19 10:52:08;;;;;;;4.78;3.58;;;24.10;99.90;;;;;;5031543;28;20191;-70
2023/08/19 10:54:41;;;;;;;4.15;3.55;;;24.20;99.90;;;;;;5034309;28;20764;-70
2023/08/19 10:57:23;;;;;;;3.63;3.33;;;24.10;99.90;;;;;;5059311;28;20285;-70
2023/08/19 11:00:05;;;;;;;4.43;3.63;;;24.10;99.90;;;;;;5032106;28;20243;-70
2023/08/19 11:02:32;;;;;;;3.95;3.47;;;24.10;99.90;;;;;;5052161;28;20201;-70
2023/08/19 11:04:58;;;;;;;3.80;3.28;;;24.20;99.90;;;;;;5027814;28;20695;-70
2023/08/19 11:07:26;;;;;;;4.38;3.97;;;24.10;99.90;;;;;;5042301;28;20186;-70
2023/08/19 11:09:56;;;;;;;4.82;3.78;;;24.20;99.90;;;;;;5032966;28;20217;-71
2023/08/19 11:12:23;;;;;;;5.38;3.78;;;24.10;99.90;;;;;;5055248;28;20220;-71
2023/08/19 11:14:55;;;;;;;3.58;3.28;;;24.10;99.90;;;;;;5041458;28;20214;-70
2023/08/19 11:17:32;;;;;;;5.03;4.00;;;24.10;99.90;;;;;;5055589;28;20278;-70
2023/08/19 11:20:10;;;;;;;5.50;3.88;;;24.20;99.90;;;;;;5059606;28;20229;-70
2023/08/19 11:22:48;;;;;;;3.58;3.20;;;24.20;99.90;;;;;;5033806;28;20217;-70
2023/08/19 11:25:15;;;;;;;3.60;3.30;;;24.10;99.90;;;;;;5057510;28;20205;-70
2023/08/19 11:27:41;;;;;;;4.30;3.50;;;24.20;99.90;;;;;;5033553;28;20273;-71
2023/08/19 11:30:12;;;;;;;4.70;3.65;;;24.10;99.90;;;;;;5032141;28;20190;-70
2023/08/19 11:32:43;;;;;;;4.10;3.78;;;24.10;99.90;;;;;;5023072;28;20190;-70
2023/08/19 11:35:10;;;;;;;3.88;3.47;;;24.10;99.90;;;;;;5033526;28;20209;-70
2023/08/19 11:37:35;;;;;;;4.32;3.58;;;24.10;99.90;;;;;;5035465;28;20204;-70
2023/08/19 11:40:05;;;;;;;4.10;3.60;;;24.10;99.90;;;;;;5025713;28;20186;-71
2023/08/19 11:42:31;;;;;;;4.35;3.95;;;24.10;99.90;;;;;;5032865;28;20182;-71
2023/08/19 11:44:57;;;;;;;5.18;3.80;;;24.10;99.90;;;;;;5035365;28;20202;-71
2023/08/19 11:47:23;;;;;;;3.97;3.47;;;24.20;99.90;;;;;;5040980;28;20188;-70
2023/08/19 11:49:51;;;;;;;5.32;3.70;;;24.10;99.90;;;;;;5067088;28;20247;-70
2023/08/19 11:52:20;;;;;;;3.53;3.22;;;24.20;99.90;;;;;;5044542;28;20653;-72
2023/08/19 11:55:06;;;;;;;4.93;3.33;;;24.10;99.90;;;;;;5045381;28;20716;-70
2023/08/19 11:57:37;;;;;;;5.22;3.47;;;24.20;99.90;;;;;;5051555;28;20253;-71
2023/08/19 12:00:15;;;;;;;3.95;3.08;;;24.20;99.90;;;;;;5057517;28;20243;-70
2023/08/19 12:02:41;;;;;;;5.55;3.55;;;24.20;99.90;;;;;;5062508;28;20181;-71
2023/08/19 12:05:08;;;;;;;4.88;3.35;;;24.20;99.90;;;;;;5051106;28;20205;-71
2023/08/19 12:07:34;;;;;;;3.78;3.47;;;24.20;99.90;;;;;;5050059;28;20217;-70
2023/08/19 12:10:01;;;;;;;4.15;3.42;;;24.20;99.90;;;;;;5045473;28;20186;-70
2023/08/19 12:12:28;;;;;;;3.92;3.50;;;24.20;99.90;;;;;;5058749;28;20189;-71
2023/08/19 12:14:55;;;;;;;3.50;3.20;;;24.20;99.90;;;;;;5036229;28;20214;-71
2023/08/19 12:17:21;;;;;;;3.65;3.20;;;24.10;99.90;;;;;;5048459;28;20182;-70
2023/08/19 12:19:47;;;;;;;3.67;3.35;;;24.20;99.90;;;;;;5046592;28;20873;-69
2023/08/19 12:22:14;;;;;;;3.67;3.38;;;24.20;99.90;;;;;;5048688;28;20260;-70
2023/08/19 12:24:42;;;;;;;3.60;3.30;;;24.20;99.90;;;;;;5036721;28;20214;-70
2023/08/19 12:27:08;;;;;;;4.20;3.58;;;24.20;99.90;;;;;;5048522;28;20221;-70
2023/08/19 12:29:35;;;;;;;5.43;3.83;;;24.20;99.90;;;;;;5036762;28;20178;-69
2023/08/19 12:32:01;;;;;;;5.10;3.30;;;24.20;99.90;;;;;;5068380;28;20274;-70
2023/08/19 12:34:27;;;;;;;5.30;3.30;;;24.20;99.90;;;;;;5052923;28;20233;-70
2023/08/19 12:36:53;;;;;;;4.30;3.22;;;24.20;99.90;;;;;;5036930;28;20689;-70
2023/08/19 12:39:19;;;;;;;3.40;3.10;;;24.20;99.90;;;;;;5057020;28;20201;-70
2023/08/19 12:41:47;;;;;;;4.15;3.50;;;24.20;99.90;;;;;;5037704;28;20233;-69
2023/08/19 12:44:13;;;;;;;3.45;3.10;;;24.20;99.90;;;;;;5047913;28;20202;-70
2023/08/19 12:46:45;;;;;;;4.40;3.42;;;24.20;99.90;;;;;;5036196;28;20678;-70
2023/08/19 12:49:11;;;;;;;3.90;3.35;;;24.20;99.90;;;;;;5054460;28;20218;-70